sensor_id;sensor_type;location;lat;lon;timestamp;P1;durP1;ratioP1;P2;durP2;ratioP2
70560;SDS011;58109;53.570;10.084;2024-02-21T14:35:24;33.30;;;14.90;;
70560;SDS011;58109;53.570;10.084;2024-02-21T14:37:51;30.33;;;13.37;;
70560;SDS011;58109;53.570;10.084;2024-02-21T14:40:18;30.33;;;12.23;;
70560;SDS011;58109;53.570;10.084;2024-02-21T14:42:44;23.13;;;12.17;;
70560;SDS011;58109;53.570;10.084;2024-02-21T14:45:10;27.57;;;11.83;;
70560;SDS011;58109;53.570;10.084;2024-02-21T14:47:38;22.30;;;11.87;;
70560;SDS011;58109;53.570;10.084;2024-02-21T14:50:04;28.07;;;11.30;;
70560;SDS011;58109;53.570;10.084;2024-02-21T14:52:33;26.00;;;11.93;;
70560;SDS011;58109;53.570;10.084;2024-02-21T14:54:58;27.63;;;13.67;;
70560;SDS011;58109;53.570;10.084;2024-02-21T14:57:24;27.13;;;13.00;;
70560;SDS011;58109;53.570;10.084;2024-02-21T14:59:50;27.60;;;12.60;;
70560;SDS011;58109;53.570;10.084;2024-02-21T15:02:21;25.80;;;12.17;;
70560;SDS011;58109;53.570;10.084;2024-02-21T15:04:49;24.03;;;11.67;;
70560;SDS011;58109;53.570;10.084;2024-02-21T15:07:20;30.33;;;12.07;;
70560;SDS011;58109;53.570;10.084;2024-02-21T15:09:51;22.03;;;10.93;;
70560;SDS011;58109;53.570;10.084;2024-02-21T15:12:17;29.60;;;11.07;;
70560;SDS011;58109;53.570;10.084;2024-02-21T15:14:45;19.53;;;9.90;;
70560;SDS011;58109;53.570;10.084;2024-02-21T15:17:10;24.13;;;10.90;;
70560;SDS011;58109;53.570;10.084;2024-02-21T15:19:36;20.57;;;9.70;;
70560;SDS011;58109;53.570;10.084;2024-02-21T15:22:03;24.43;;;9.80;;
70560;SDS011;58109;53.570;10.084;2024-02-21T15:24:32;15.10;;;8.07;;
70560;SDS011;58109;53.570;10.084;2024-02-21T15:26:57;35.50;;;9.20;;
70560;SDS011;58109;53.570;10.084;2024-02-21T15:29:27;18.38;;;8.70;;
70560;SDS011;58109;53.570;10.084;2024-02-21T15:31:53;17.80;;;8.10;;
70560;SDS011;58109;53.570;10.084;2024-02-21T15:34:18;19.70;;;9.00;;
70560;SDS011;58109;53.570;10.084;2024-02-21T15:36:46;21.00;;;8.13;;
70560;SDS011;58109;53.570;10.084;2024-02-21T15:39:14;16.40;;;7.30;;
70560;SDS011;58109;53.570;10.084;2024-02-21T15:41:39;10.30;;;6.13;;
70560;SDS011;58109;53.570;10.084;2024-02-21T15:44:05;13.30;;;6.80;;
70560;SDS011;58109;53.570;10.084;2024-02-21T15:46:31;19.63;;;6.80;;
70560;SDS011;58109;53.570;10.084;2024-02-21T15:48:58;13.57;;;5.60;;
70560;SDS011;58109;53.570;10.084;2024-02-21T15:51:27;12.67;;;5.00;;
70560;SDS011;58109;53.570;10.084;2024-02-21T15:53:57;20.87;;;6.70;;
70560;SDS011;58109;53.570;10.084;2024-02-21T15:56:23;11.87;;;6.60;;
70560;SDS011;58109;53.570;10.084;2024-02-21T15:58:51;13.30;;;4.97;;
70560;SDS011;58109;53.570;10.084;2024-02-21T16:01:22;9.77;;;5.13;;
70560;SDS011;58109;53.570;10.084;2024-02-21T16:03:48;13.20;;;5.47;;
70560;SDS011;58109;53.570;10.084;2024-02-21T16:06:13;9.37;;;5.33;;
70560;SDS011;58109;53.570;10.084;2024-02-21T16:08:41;13.23;;;4.63;;
70560;SDS011;58109;53.570;10.084;2024-02-21T16:11:12;14.40;;;5.10;;
70560;SDS011;58109;53.570;10.084;2024-02-21T16:13:47;8.57;;;4.10;;
70560;SDS011;58109;53.570;10.084;2024-02-21T16:16:16;10.50;;;4.27;;
70560;SDS011;58109;53.570;10.084;2024-02-21T16:18:42;14.07;;;4.50;;
70560;SDS011;58109;53.570;10.084;2024-02-21T16:21:14;6.70;;;4.37;;
70560;SDS011;58109;53.570;10.084;2024-02-21T16:23:41;6.90;;;3.83;;
70560;SDS011;58109;53.570;10.084;2024-02-21T16:26:09;18.00;;;5.10;;
70560;SDS011;58109;53.570;10.084;2024-02-21T16:28:39;9.60;;;5.00;;
70560;SDS011;58109;53.570;10.084;2024-02-21T16:31:05;10.87;;;4.47;;
70560;SDS011;58109;53.570;10.084;2024-02-21T16:33:31;15.33;;;4.80;;
70560;SDS011;58109;53.570;10.084;2024-02-21T16:35:57;11.07;;;4.67;;
70560;SDS011;58109;53.570;10.084;2024-02-21T16:38:22;13.30;;;5.30;;
70560;SDS011;58109;53.570;10.084;2024-02-21T16:40:51;9.90;;;5.27;;
70560;SDS011;58109;53.570;10.084;2024-02-21T16:43:17;11.13;;;5.60;;
70560;SDS011;58109;53.570;10.084;2024-02-21T16:45:47;15.97;;;4.83;;
70560;SDS011;58109;53.570;10.084;2024-02-21T16:48:13;11.27;;;4.33;;
70560;SDS011;58109;53.570;10.084;2024-02-21T16:50:40;7.80;;;3.63;;
70560;SDS011;58109;53.570;10.084;2024-02-21T16:53:08;8.37;;;3.77;;
70560;SDS011;58109;53.570;10.084;2024-02-21T16:55:36;13.67;;;4.37;;
70560;SDS011;58109;53.570;10.084;2024-02-21T16:58:03;9.70;;;5.13;;
70560;SDS011;58109;53.570;10.084;2024-02-21T17:00:33;9.57;;;4.33;;
70560;SDS011;58109;53.570;10.084;2024-02-21T17:02:59;10.00;;;4.50;;
70560;SDS011;58109;53.570;10.084;2024-02-21T17:05:25;10.30;;;5.27;;
70560;SDS011;58109;53.570;10.084;2024-02-21T17:07:51;11.63;;;5.17;;
70560;SDS011;58109;53.570;10.084;2024-02-21T17:10:17;13.23;;;5.80;;
70560;SDS011;58109;53.570;10.084;2024-02-21T17:12:45;9.10;;;4.57;;
70560;SDS011;58109;53.570;10.084;2024-02-21T17:15:10;7.37;;;5.03;;
70560;SDS011;58109;53.570;10.084;2024-02-21T17:17:43;11.70;;;4.70;;
70560;SDS011;58109;53.570;10.084;2024-02-21T17:20:08;13.30;;;6.00;;
70560;SDS011;58109;53.570;10.084;2024-02-21T17:22:36;10.10;;;5.13;;
70560;SDS011;58109;53.570;10.084;2024-02-21T17:25:07;14.70;;;5.43;;
70560;SDS011;58109;53.570;10.084;2024-02-21T17:27:35;13.93;;;6.80;;
70560;SDS011;58109;53.570;10.084;2024-02-21T17:30:04;14.33;;;5.47;;
70560;SDS011;58109;53.570;10.084;2024-02-21T17:32:33;13.70;;;5.57;;
70560;SDS011;58109;53.570;10.084;2024-02-21T17:35:04;10.63;;;5.73;;
70560;SDS011;58109;53.570;10.084;2024-02-21T17:37:32;9.23;;;5.33;;
70560;SDS011;58109;53.570;10.084;2024-02-21T17:40:03;13.00;;;6.73;;
70560;SDS011;58109;53.570;10.084;2024-02-21T17:42:30;19.93;;;5.50;;
70560;SDS011;58109;53.570;10.084;2024-02-21T17:44:55;11.23;;;6.10;;
70560;SDS011;58109;53.570;10.084;2024-02-21T17:47:21;13.70;;;5.80;;
70560;SDS011;58109;53.570;10.084;2024-02-21T17:49:48;14.00;;;5.50;;
70560;SDS011;58109;53.570;10.084;2024-02-21T17:52:16;16.00;;;7.70;;
70560;SDS011;58109;53.570;10.084;2024-02-21T17:54:43;13.90;;;6.70;;
70560;SDS011;58109;53.570;10.084;2024-02-21T17:57:12;13.30;;;7.50;;
70560;SDS011;58109;53.570;10.084;2024-02-21T17:59:41;14.47;;;7.40;;
70560;SDS011;58109;53.570;10.084;2024-02-21T18:02:10;14.43;;;6.83;;
70560;SDS011;58109;53.570;10.084;2024-02-21T18:04:36;14.67;;;6.00;;
70560;SDS011;58109;53.570;10.084;2024-02-21T18:07:05;17.97;;;6.40;;
70560;SDS011;58109;53.570;10.084;2024-02-21T18:09:31;13.17;;;6.90;;
70560;SDS011;58109;53.570;10.084;2024-02-21T18:11:59;18.77;;;7.80;;
70560;SDS011;58109;53.570;10.084;2024-02-21T18:14:24;20.40;;;7.20;;
70560;SDS011;58109;53.570;10.084;2024-02-21T18:16:52;13.97;;;6.23;;
70560;SDS011;58109;53.570;10.084;2024-02-21T18:19:18;11.47;;;5.67;;
70560;SDS011;58109;53.570;10.084;2024-02-21T18:21:47;18.93;;;6.80;;
70560;SDS011;58109;53.570;10.084;2024-02-21T18:24:12;11.37;;;6.50;;
70560;SDS011;58109;53.570;10.084;2024-02-21T18:26:46;11.13;;;6.97;;
70560;SDS011;58109;53.570;10.084;2024-02-21T18:29:14;14.87;;;6.40;;
70560;SDS011;58109;53.570;10.084;2024-02-21T18:31:40;11.70;;;6.60;;
70560;SDS011;58109;53.570;10.084;2024-02-21T18:34:09;10.20;;;5.70;;
70560;SDS011;58109;53.570;10.084;2024-02-21T18:36:38;11.90;;;5.77;;
70560;SDS011;58109;53.570;10.084;2024-02-21T18:39:04;15.93;;;5.97;;
70560;SDS011;58109;53.570;10.084;2024-02-21T18:41:29;11.73;;;6.10;;
70560;SDS011;58109;53.570;10.084;2024-02-21T18:43:57;14.30;;;6.70;;
70560;SDS011;58109;53.570;10.084;2024-02-21T18:46:26;13.70;;;7.07;;
70560;SDS011;58109;53.570;10.084;2024-02-21T18:48:54;18.43;;;6.40;;
70560;SDS011;58109;53.570;10.084;2024-02-21T18:51:22;22.60;;;6.13;;
70560;SDS011;58109;53.570;10.084;2024-02-21T18:53:52;14.30;;;5.77;;
70560;SDS011;58109;53.570;10.084;2024-02-21T18:56:17;19.70;;;6.47;;
70560;SDS011;58109;53.570;10.084;2024-02-21T18:58:51;11.40;;;5.67;;
70560;SDS011;58109;53.570;10.084;2024-02-21T19:01:20;15.63;;;5.43;;
70560;SDS011;58109;53.570;10.084;2024-02-21T19:03:46;17.00;;;6.23;;
70560;SDS011;58109;53.570;10.084;2024-02-21T19:06:14;13.17;;;5.23;;
70560;SDS011;58109;53.570;10.084;2024-02-21T19:08:44;14.57;;;5.00;;
70560;SDS011;58109;53.570;10.084;2024-02-21T19:11:12;13.53;;;5.30;;
70560;SDS011;58109;53.570;10.084;2024-02-21T19:13:37;12.10;;;7.17;;
70560;SDS011;58109;53.570;10.084;2024-02-21T19:16:06;8.97;;;4.80;;
70560;SDS011;58109;53.570;10.084;2024-02-21T19:18:35;13.53;;;5.27;;
70560;SDS011;58109;53.570;10.084;2024-02-21T19:21:04;12.67;;;4.80;;
70560;SDS011;58109;53.570;10.084;2024-02-21T19:23:29;12.50;;;5.57;;
70560;SDS011;58109;53.570;10.084;2024-02-21T19:25:57;11.13;;;4.50;;
70560;SDS011;58109;53.570;10.084;2024-02-21T19:28:25;9.13;;;4.93;;
70560;SDS011;58109;53.570;10.084;2024-02-21T19:30:55;11.43;;;4.70;;
70560;SDS011;58109;53.570;10.084;2024-02-21T19:33:23;13.47;;;5.63;;
70560;SDS011;58109;53.570;10.084;2024-02-21T19:35:48;12.43;;;4.70;;
70560;SDS011;58109;53.570;10.084;2024-02-21T19:38:18;11.80;;;5.17;;
70560;SDS011;58109;53.570;10.084;2024-02-21T19:40:47;11.00;;;4.57;;
70560;SDS011;58109;53.570;10.084;2024-02-21T19:43:13;12.03;;;5.13;;
70560;SDS011;58109;53.570;10.084;2024-02-21T19:45:42;19.03;;;5.10;;
70560;SDS011;58109;53.570;10.084;2024-02-21T19:48:12;12.03;;;4.63;;
70560;SDS011;58109;53.570;10.084;2024-02-21T19:50:42;12.37;;;4.57;;
70560;SDS011;58109;53.570;10.084;2024-02-21T19:53:07;10.33;;;4.00;;
70560;SDS011;58109;53.570;10.084;2024-02-21T19:55:35;9.60;;;4.10;;
70560;SDS011;58109;53.570;10.084;2024-02-21T19:58:01;16.23;;;4.70;;
70560;SDS011;58109;53.570;10.084;2024-02-21T20:00:29;10.57;;;3.93;;
70560;SDS011;58109;53.570;10.084;2024-02-21T20:02:59;13.13;;;4.23;;
70560;SDS011;58109;53.570;10.084;2024-02-21T20:05:25;11.00;;;3.80;;
70560;SDS011;58109;53.570;10.084;2024-02-21T20:07:50;14.40;;;4.20;;
70560;SDS011;58109;53.570;10.084;2024-02-21T20:10:18;7.83;;;3.27;;
70560;SDS011;58109;53.570;10.084;2024-02-21T20:12:44;9.33;;;4.40;;
70560;SDS011;58109;53.570;10.084;2024-02-21T20:15:13;7.90;;;3.47;;
70560;SDS011;58109;53.570;10.084;2024-02-21T20:17:43;37.40;;;3.70;;
70560;SDS011;58109;53.570;10.084;2024-02-21T20:20:13;10.83;;;4.03;;
70560;SDS011;58109;53.570;10.084;2024-02-21T20:22:39;5.60;;;3.17;;
70560;SDS011;58109;53.570;10.084;2024-02-21T20:25:07;8.90;;;3.20;;
70560;SDS011;58109;53.570;10.084;2024-02-21T20:27:36;14.67;;;3.30;;
70560;SDS011;58109;53.570;10.084;2024-02-21T20:30:04;8.87;;;3.60;;
70560;SDS011;58109;53.570;10.084;2024-02-21T20:32:33;8.60;;;3.10;;
70560;SDS011;58109;53.570;10.084;2024-02-21T20:35:01;7.43;;;3.00;;
70560;SDS011;58109;53.570;10.084;2024-02-21T20:37:26;11.50;;;3.00;;
70560;SDS011;58109;53.570;10.084;2024-02-21T20:39:52;13.93;;;4.23;;
70560;SDS011;58109;53.570;10.084;2024-02-21T20:42:17;7.77;;;2.70;;
70560;SDS011;58109;53.570;10.084;2024-02-21T20:44:43;5.10;;;2.97;;
70560;SDS011;58109;53.570;10.084;2024-02-21T20:47:11;6.00;;;2.87;;
70560;SDS011;58109;53.570;10.084;2024-02-21T20:49:37;10.27;;;3.17;;
70560;SDS011;58109;53.570;10.084;2024-02-21T20:52:02;12.83;;;3.30;;
70560;SDS011;58109;53.570;10.084;2024-02-21T20:54:31;14.20;;;3.30;;
70560;SDS011;58109;53.570;10.084;2024-02-21T20:56:56;4.40;;;2.50;;
70560;SDS011;58109;53.570;10.084;2024-02-21T20:59:27;6.97;;;3.43;;
70560;SDS011;58109;53.570;10.084;2024-02-21T21:01:52;17.43;;;3.67;;
70560;SDS011;58109;53.570;10.084;2024-02-21T21:04:22;16.30;;;3.57;;
70560;SDS011;58109;53.570;10.084;2024-02-21T21:06:51;9.60;;;3.13;;
70560;SDS011;58109;53.570;10.084;2024-02-21T21:09:17;10.17;;;3.53;;
70560;SDS011;58109;53.570;10.084;2024-02-21T21:11:43;7.70;;;3.00;;
70560;SDS011;58109;53.570;10.084;2024-02-21T21:14:11;13.83;;;3.97;;
70560;SDS011;58109;53.570;10.084;2024-02-21T21:16:36;7.23;;;2.83;;
70560;SDS011;58109;53.570;10.084;2024-02-21T21:19:02;11.90;;;2.77;;
70560;SDS011;58109;53.570;10.084;2024-02-21T21:21:27;8.90;;;3.23;;
70560;SDS011;58109;53.570;10.084;2024-02-21T21:23:54;4.20;;;3.10;;
70560;SDS011;58109;53.570;10.084;2024-02-21T21:26:20;21.03;;;3.80;;
70560;SDS011;58109;53.570;10.084;2024-02-21T21:28:45;9.97;;;3.20;;
70560;SDS011;58109;53.570;10.084;2024-02-21T21:31:11;11.07;;;3.20;;
70560;SDS011;58109;53.570;10.084;2024-02-21T21:33:39;6.60;;;2.80;;
70560;SDS011;58109;53.570;10.084;2024-02-21T21:36:05;16.47;;;4.47;;
70560;SDS011;58109;53.570;10.084;2024-02-21T21:38:35;12.30;;;3.20;;
70560;SDS011;58109;53.570;10.084;2024-02-21T21:41:03;16.37;;;4.60;;
70560;SDS011;58109;53.570;10.084;2024-02-21T21:43:28;6.83;;;3.00;;
70560;SDS011;58109;53.570;10.084;2024-02-21T21:45:54;7.87;;;3.17;;
70560;SDS011;58109;53.570;10.084;2024-02-21T21:48:22;16.73;;;3.30;;
70560;SDS011;58109;53.570;10.084;2024-02-21T21:50:47;16.53;;;4.07;;
70560;SDS011;58109;53.570;10.084;2024-02-21T21:53:17;10.30;;;3.97;;
70560;SDS011;58109;53.570;10.084;2024-02-21T21:55:43;10.20;;;3.47;;
70560;SDS011;58109;53.570;10.084;2024-02-21T21:58:09;8.77;;;3.40;;
70560;SDS011;58109;53.570;10.084;2024-02-21T22:00:35;10.33;;;3.07;;
70560;SDS011;58109;53.570;10.084;2024-02-21T22:03:00;11.83;;;3.40;;
70560;SDS011;58109;53.570;10.084;2024-02-21T22:05:26;10.47;;;3.97;;
70560;SDS011;58109;53.570;10.084;2024-02-21T22:07:51;5.13;;;3.07;;
70560;SDS011;58109;53.570;10.084;2024-02-21T22:10:16;12.57;;;3.57;;
70560;SDS011;58109;53.570;10.084;2024-02-21T22:12:42;12.73;;;3.10;;
70560;SDS011;58109;53.570;10.084;2024-02-21T22:15:08;7.40;;;3.30;;
70560;SDS011;58109;53.570;10.084;2024-02-21T22:17:33;7.07;;;2.80;;
70560;SDS011;58109;53.570;10.084;2024-02-21T22:20:01;6.80;;;2.67;;
70560;SDS011;58109;53.570;10.084;2024-02-21T22:22:29;13.00;;;3.67;;
70560;SDS011;58109;53.570;10.084;2024-02-21T22:24:55;11.63;;;3.83;;
70560;SDS011;58109;53.570;10.084;2024-02-21T22:27:23;11.47;;;4.10;;
70560;SDS011;58109;53.570;10.084;2024-02-21T22:29:49;13.90;;;3.47;;
70560;SDS011;58109;53.570;10.084;2024-02-21T22:32:20;13.13;;;3.83;;
70560;SDS011;58109;53.570;10.084;2024-02-21T22:34:48;7.03;;;3.17;;
70560;SDS011;58109;53.570;10.084;2024-02-21T22:37:13;10.33;;;3.20;;
70560;SDS011;58109;53.570;10.084;2024-02-21T22:39:41;10.17;;;3.20;;
70560;SDS011;58109;53.570;10.084;2024-02-21T22:42:06;9.10;;;2.70;;
70560;SDS011;58109;53.570;10.084;2024-02-21T22:44:33;5.80;;;3.43;;
70560;SDS011;58109;53.570;10.084;2024-02-21T22:47:00;6.07;;;2.80;;
70560;SDS011;58109;53.570;10.084;2024-02-21T22:49:26;9.60;;;3.30;;
70560;SDS011;58109;53.570;10.084;2024-02-21T22:51:53;16.80;;;3.10;;
70560;SDS011;58109;53.570;10.084;2024-02-21T22:54:22;6.63;;;2.93;;
70560;SDS011;58109;53.570;10.084;2024-02-21T22:56:49;11.23;;;3.37;;
70560;SDS011;58109;53.570;10.084;2024-02-21T22:59:17;6.00;;;3.17;;
70560;SDS011;58109;53.570;10.084;2024-02-21T23:01:43;9.20;;;2.93;;
70560;SDS011;58109;53.570;10.084;2024-02-21T23:04:08;7.60;;;3.40;;
70560;SDS011;58109;53.570;10.084;2024-02-21T23:06:36;11.37;;;4.03;;
70560;SDS011;58109;53.570;10.084;2024-02-21T23:09:02;12.40;;;3.60;;
70560;SDS011;58109;53.570;10.084;2024-02-21T23:11:31;8.83;;;3.70;;
70560;SDS011;58109;53.570;10.084;2024-02-21T23:13:57;10.80;;;3.07;;
70560;SDS011;58109;53.570;10.084;2024-02-21T23:16:25;13.43;;;3.83;;
70560;SDS011;58109;53.570;10.084;2024-02-21T23:18:55;14.40;;;3.73;;
70560;SDS011;58109;53.570;10.084;2024-02-21T23:21:21;11.73;;;2.90;;
70560;SDS011;58109;53.570;10.084;2024-02-21T23:23:48;6.93;;;3.50;;
70560;SDS011;58109;53.570;10.084;2024-02-21T23:26:15;11.20;;;3.77;;
70560;SDS011;58109;53.570;10.084;2024-02-21T23:28:43;13.37;;;3.70;;
70560;SDS011;58109;53.570;10.084;2024-02-21T23:31:12;16.83;;;3.43;;
70560;SDS011;58109;53.570;10.084;2024-02-21T23:33:38;11.97;;;3.60;;
70560;SDS011;58109;53.570;10.084;2024-02-21T23:36:04;13.03;;;3.93;;
70560;SDS011;58109;53.570;10.084;2024-02-21T23:38:34;12.33;;;3.30;;
70560;SDS011;58109;53.570;10.084;2024-02-21T23:41:07;18.60;;;3.77;;
70560;SDS011;58109;53.570;10.084;2024-02-21T23:43:36;9.27;;;3.67;;
70560;SDS011;58109;53.570;10.084;2024-02-21T23:46:07;7.83;;;3.40;;
70560;SDS011;58109;53.570;10.084;2024-02-21T23:48:37;5.33;;;3.10;;
70560;SDS011;58109;53.570;10.084;2024-02-21T23:51:06;9.57;;;3.53;;
70560;SDS011;58109;53.570;10.084;2024-02-21T23:53:32;10.67;;;3.80;;
70560;SDS011;58109;53.570;10.084;2024-02-21T23:55:57;6.77;;;2.93;;
70560;SDS011;58109;53.570;10.084;2024-02-21T23:58:23;9.00;;;3.60;;
